createdAt,value
2023-05-02T00:01:28.863Z,10.63
2023-05-02T00:03:55.962Z,12.10
2023-05-02T00:06:23.132Z,13.17
2023-05-02T00:08:50.387Z,10.13
2023-05-02T00:11:17.267Z,9.30
2023-05-02T00:13:44.835Z,9.47
2023-05-02T00:16:11.719Z,9.53
2023-05-02T00:18:38.629Z,8.97
2023-05-02T00:21:06.053Z,8.37
2023-05-02T00:23:33.071Z,9.23
2023-05-02T00:26:00.112Z,8.27
2023-05-02T00:28:27.176Z,8.30
2023-05-02T00:30:54.146Z,7.97
2023-05-02T00:33:21.033Z,8.37
2023-05-02T00:35:47.947Z,7.70
2023-05-02T00:38:14.850Z,7.53
2023-05-02T00:40:51.308Z,8.20
2023-05-02T00:43:18.424Z,8.13
2023-05-02T00:45:48.826Z,7.80
2023-05-02T00:48:18.002Z,7.93
2023-05-02T00:50:44.987Z,7.37
2023-05-02T00:53:11.961Z,7.90
2023-05-02T00:55:38.949Z,7.10
2023-05-02T00:58:11.024Z,7.27
2023-05-02T01:00:56.978Z,7.70
2023-05-02T01:03:54.743Z,7.23
2023-05-02T01:06:30.290Z,7.53
2023-05-02T01:09:12.699Z,6.97
2023-05-02T01:11:52.101Z,8.00
2023-05-02T01:14:21.455Z,7.97
2023-05-02T01:16:50.245Z,7.40
2023-05-02T01:19:26.783Z,8.57
2023-05-02T01:21:55.226Z,8.43
2023-05-02T01:24:54.513Z,8.13
2023-05-02T01:27:39.787Z,8.37
2023-05-02T01:30:08.863Z,8.48
2023-05-02T01:32:39.487Z,7.30
2023-05-02T01:35:07.800Z,7.37
2023-05-02T01:37:36.784Z,7.90
2023-05-02T01:40:07.233Z,7.60
2023-05-02T01:42:36.551Z,9.00
2023-05-02T01:45:05.064Z,8.57
2023-05-02T01:47:35.868Z,8.23
2023-05-02T01:50:10.122Z,7.77
2023-05-02T01:52:38.644Z,8.30
2023-05-02T01:55:09.553Z,9.33
2023-05-02T01:57:39.759Z,8.67
2023-05-02T02:00:08.708Z,8.87
2023-05-02T02:02:37.179Z,8.70
2023-05-02T02:05:06.204Z,8.53
2023-05-02T02:07:33.564Z,7.90
2023-05-02T02:10:01.040Z,7.83
2023-05-02T02:12:42.360Z,8.40
2023-05-02T02:15:47.188Z,8.77
2023-05-02T02:18:19.909Z,8.43
2023-05-02T02:20:48.658Z,7.77
2023-05-02T02:23:16.655Z,7.80
2023-05-02T02:25:45.343Z,8.53
2023-05-02T02:28:12.229Z,7.83
2023-05-02T02:30:39.201Z,8.10
2023-05-02T02:33:06.453Z,8.23
2023-05-02T02:35:38.991Z,8.60
2023-05-02T02:38:17.675Z,7.67
2023-05-02T02:40:57.502Z,8.40
2023-05-02T02:43:44.669Z,8.77
2023-05-02T02:46:33.989Z,8.43
2023-05-02T02:49:10.784Z,8.10
2023-05-02T02:52:12.335Z,8.60
2023-05-02T02:54:59.767Z,9.33
2023-05-02T02:58:04.110Z,8.80
2023-05-02T03:00:33.252Z,9.20
2023-05-02T03:03:00.924Z,8.37
2023-05-02T03:05:29.300Z,8.90
2023-05-02T03:07:59.009Z,9.20
2023-05-02T03:10:27.140Z,8.53
2023-05-02T03:12:56.802Z,8.43
2023-05-02T03:15:45.078Z,8.10
2023-05-02T03:18:12.004Z,8.27
2023-05-02T03:20:40.010Z,9.07
2023-05-02T03:23:06.839Z,8.80
2023-05-02T03:25:33.909Z,8.03
2023-05-02T03:28:00.812Z,9.03
2023-05-02T03:30:27.760Z,8.33
2023-05-02T03:32:54.637Z,8.57
2023-05-02T03:35:21.484Z,8.70
2023-05-02T03:37:48.320Z,8.47
2023-05-02T03:40:16.137Z,8.20
2023-05-02T03:42:43.022Z,10.10
2023-05-02T03:45:10.487Z,8.77
2023-05-02T03:47:37.676Z,8.87
2023-05-02T03:50:04.872Z,8.80
2023-05-02T03:52:31.740Z,9.40
2023-05-02T03:54:58.657Z,9.37
2023-05-02T03:57:25.629Z,9.60
2023-05-02T03:59:52.655Z,9.03
2023-05-02T04:02:19.568Z,9.47
2023-05-02T04:04:46.712Z,8.53
2023-05-02T04:07:18.506Z,8.97
2023-05-02T04:09:45.973Z,8.60
2023-05-02T04:12:13.109Z,9.60
2023-05-02T04:14:40.080Z,8.63
2023-05-02T04:17:07.089Z,8.37
2023-05-02T04:19:35.248Z,8.67
2023-05-02T04:22:03.435Z,8.50
2023-05-02T04:24:30.273Z,8.93
2023-05-02T04:26:57.243Z,9.47
2023-05-02T04:29:24.075Z,7.87
2023-05-02T04:31:51.664Z,9.30
2023-05-02T04:34:18.580Z,8.40
2023-05-02T04:36:46.865Z,7.93
2023-05-02T04:39:14.122Z,8.10
2023-05-02T04:41:41.778Z,8.80
2023-05-02T04:44:08.618Z,8.60
2023-05-02T04:46:35.771Z,8.53
2023-05-02T04:49:02.740Z,8.80
2023-05-02T04:51:31.989Z,8.23
2023-05-02T04:53:58.824Z,8.23
2023-05-02T04:56:25.877Z,7.80
2023-05-02T04:58:52.876Z,8.27
2023-05-02T05:01:19.883Z,8.17
2023-05-02T05:03:46.875Z,8.73
2023-05-02T05:06:13.796Z,8.10
2023-05-02T05:08:40.674Z,8.03
2023-05-02T05:11:07.572Z,8.40
2023-05-02T05:13:34.581Z,8.57
2023-05-02T05:16:02.168Z,7.63
2023-05-02T05:18:29.200Z,7.60
2023-05-02T05:20:56.146Z,7.60
2023-05-02T05:23:23.085Z,7.50
2023-05-02T05:25:49.911Z,7.37
2023-05-02T05:28:18.629Z,7.07
2023-05-02T05:30:45.784Z,7.37
2023-05-02T05:33:13.334Z,7.30
2023-05-02T05:35:40.311Z,7.47
2023-05-02T05:38:07.293Z,7.50
2023-05-02T05:40:34.157Z,8.47
2023-05-02T05:43:01.384Z,8.00
2023-05-02T05:45:28.296Z,8.87
2023-05-02T05:47:55.969Z,10.00
2023-05-02T05:50:22.916Z,9.43
2023-05-02T05:52:49.795Z,8.17
2023-05-02T05:55:16.709Z,7.90
2023-05-02T05:57:43.588Z,7.47
2023-05-02T06:00:11.192Z,7.43
2023-05-02T06:02:38.128Z,7.50
2023-05-02T06:05:05.440Z,7.10
2023-05-02T06:07:32.437Z,7.33
2023-05-02T06:09:59.406Z,8.00
2023-05-02T06:12:26.980Z,7.23
2023-05-02T06:14:53.846Z,8.80
2023-05-02T06:17:20.911Z,8.53
2023-05-02T06:19:47.981Z,11.33
2023-05-02T06:22:14.935Z,11.00
2023-05-02T06:24:41.825Z,8.80
2023-05-02T06:27:08.759Z,7.43
2023-05-02T06:29:35.671Z,6.87
2023-05-02T06:32:02.553Z,6.03
2023-05-02T06:34:31.833Z,5.93
2023-05-02T06:36:59.031Z,6.70
2023-05-02T06:39:26.236Z,6.10
2023-05-02T06:41:58.265Z,6.17
2023-05-02T06:44:25.367Z,6.97
2023-05-02T06:46:52.348Z,7.27
2023-05-02T06:49:19.249Z,6.17
2023-05-02T06:51:46.257Z,5.80
2023-05-02T06:54:13.202Z,6.33
2023-05-02T06:56:40.093Z,6.00
2023-05-02T06:59:07.028Z,5.70
2023-05-02T07:01:34.028Z,7.20
2023-05-02T07:04:04.457Z,6.77
2023-05-02T07:06:32.070Z,6.53
2023-05-02T07:08:58.997Z,5.70
2023-05-02T07:11:26.328Z,5.37
2023-05-02T07:13:53.183Z,5.10
2023-05-02T07:16:20.406Z,5.40
2023-05-02T07:18:47.319Z,4.70
2023-05-02T07:21:14.395Z,4.90
2023-05-02T07:23:41.426Z,5.57
2023-05-02T07:26:08.220Z,5.00
2023-05-02T07:28:35.149Z,4.83
2023-05-02T07:31:02.051Z,4.70
2023-05-02T07:33:29.193Z,4.60
2023-05-02T07:35:56.593Z,4.40
2023-05-02T07:38:23.494Z,4.07
2023-05-02T07:40:50.472Z,5.17
2023-05-02T07:43:17.355Z,4.50
2023-05-02T07:45:44.276Z,4.40
2023-05-02T07:48:11.232Z,4.07
2023-05-02T07:50:38.099Z,5.23
2023-05-02T07:53:04.977Z,4.40
2023-05-02T07:55:33.347Z,5.07
2023-05-02T07:58:00.737Z,4.80
2023-05-02T08:00:27.880Z,4.30
2023-05-02T08:02:54.763Z,4.10
2023-05-02T08:05:21.771Z,4.30
2023-05-02T08:07:48.992Z,3.77
2023-05-02T08:10:16.005Z,4.30
2023-05-02T08:12:43.023Z,3.97
2023-05-02T08:15:13.721Z,3.87
2023-05-02T08:17:40.761Z,3.77
2023-05-02T08:20:08.369Z,3.77
2023-05-02T08:22:35.228Z,3.77
2023-05-02T08:25:02.138Z,3.60
2023-05-02T08:27:29.083Z,3.57
2023-05-02T08:29:57.910Z,3.60
2023-05-02T08:32:25.654Z,3.33
2023-05-02T08:34:56.483Z,4.10
2023-05-02T08:37:23.405Z,4.23
2023-05-02T08:39:50.336Z,4.53
2023-05-02T08:42:17.574Z,4.00
2023-05-02T08:44:44.563Z,3.60
2023-05-02T08:47:13.827Z,3.87
2023-05-02T08:49:42.364Z,3.67
2023-05-02T08:52:12.011Z,3.63
2023-05-02T08:54:39.250Z,3.57
2023-05-02T08:57:07.132Z,4.20
2023-05-02T08:59:34.286Z,3.00
2023-05-02T09:02:37.901Z,3.43
2023-05-02T09:05:08.007Z,3.53
2023-05-02T09:08:01.477Z,3.70
2023-05-02T09:10:30.936Z,3.93
2023-05-02T09:12:57.804Z,3.43
2023-05-02T09:15:24.701Z,3.37
2023-05-02T09:17:51.688Z,3.90
2023-05-02T09:20:18.633Z,4.93
2023-05-02T09:22:51.078Z,4.13
2023-05-02T09:25:19.551Z,4.80
2023-05-02T09:27:53.951Z,4.67
2023-05-02T09:30:23.164Z,5.32
2023-05-02T09:32:57.393Z,5.97
2023-05-02T09:35:24.461Z,6.03
2023-05-02T09:37:56.720Z,6.67
2023-05-02T09:40:24.499Z,6.00
2023-05-02T09:42:52.492Z,7.50
2023-05-02T09:45:24.220Z,6.27
2023-05-02T09:47:52.104Z,8.27
2023-05-02T09:50:38.055Z,7.53
2023-05-02T09:53:07.385Z,7.63
2023-05-02T09:55:34.373Z,8.57
2023-05-02T09:58:01.565Z,8.97
2023-05-02T10:00:44.602Z,8.57
2023-05-02T10:03:15.664Z,8.87
2023-05-02T10:05:44.417Z,8.47
2023-05-02T10:08:12.501Z,8.50
2023-05-02T10:10:47.586Z,7.33
2023-05-02T10:15:44.690Z,7.97
2023-05-02T10:18:17.852Z,8.93
2023-05-02T10:20:57.725Z,7.80
2023-05-02T10:23:29.325Z,7.23
2023-05-02T10:26:00.046Z,7.37
2023-05-02T10:28:28.066Z,6.73
2023-05-02T10:30:55.476Z,7.13
2023-05-02T10:33:23.582Z,7.80
2023-05-02T10:35:50.582Z,7.37
2023-05-02T10:38:24.110Z,7.57
2023-05-02T10:40:59.084Z,6.83
2023-05-02T10:43:28.785Z,7.68
2023-05-02T10:45:55.739Z,7.47
2023-05-02T10:48:25.236Z,7.93
2023-05-02T10:51:01.518Z,6.73
2023-05-02T10:53:44.931Z,7.47
2023-05-02T10:56:18.936Z,7.20
2023-05-02T10:58:49.109Z,7.50
2023-05-02T11:01:32.500Z,8.27
2023-05-02T11:04:00.404Z,7.40
2023-05-02T11:06:29.852Z,8.17
2023-05-02T11:09:17.917Z,7.80
2023-05-02T11:11:45.742Z,8.27
2023-05-02T11:14:25.838Z,8.80
2023-05-02T11:17:10.971Z,7.90
2023-05-02T11:19:37.781Z,7.97
2023-05-02T11:22:20.605Z,7.53
2023-05-02T11:24:48.846Z,7.87
2023-05-02T11:27:33.860Z,7.97
2023-05-02T11:30:07.797Z,3.92
2023-05-02T11:32:48.624Z,3.97
2023-05-02T11:35:16.937Z,3.67
2023-05-02T11:37:43.898Z,8.13
2023-05-02T11:40:12.159Z,90.57
2023-05-02T11:42:39.226Z,33.93
2023-05-02T11:45:06.641Z,8.83
2023-05-02T11:47:33.829Z,6.07
2023-05-02T11:50:05.345Z,4.77
2023-05-02T11:52:40.681Z,4.87
2023-05-02T11:55:10.472Z,6.43
2023-05-02T11:57:39.249Z,7.17
2023-05-02T12:00:07.993Z,5.60
2023-05-02T12:02:42.550Z,5.80
2023-05-02T12:05:11.945Z,5.95
2023-05-02T12:07:44.933Z,6.20
2023-05-02T12:10:13.099Z,6.10
2023-05-02T12:12:41.289Z,8.97
2023-05-02T12:15:10.616Z,9.63
2023-05-02T12:17:42.820Z,8.43
2023-05-02T12:20:11.099Z,6.10
2023-05-02T12:22:38.414Z,5.80
2023-05-02T12:25:06.398Z,5.63
2023-05-02T12:27:36.202Z,6.63
2023-05-02T12:30:03.760Z,5.30
2023-05-02T12:32:33.364Z,6.30
2023-05-02T12:35:02.007Z,5.03
2023-05-02T12:37:29.263Z,5.90
2023-05-02T12:39:56.884Z,6.83
2023-05-02T12:42:26.113Z,6.50
2023-05-02T12:44:53.570Z,6.77
2023-05-02T12:47:22.661Z,6.50
2023-05-02T12:49:57.666Z,6.47
2023-05-02T12:52:46.471Z,5.30
2023-05-02T12:55:22.119Z,5.90
2023-05-02T12:57:49.064Z,7.47
2023-05-02T13:00:18.952Z,5.30
2023-05-02T13:02:46.157Z,4.67
2023-05-02T13:05:17.056Z,4.30
2023-05-02T13:07:44.089Z,5.70
2023-05-02T13:10:12.298Z,4.27
2023-05-02T13:12:39.875Z,4.33
2023-05-02T13:15:08.154Z,3.73
2023-05-02T13:17:35.790Z,3.53
2023-05-02T13:20:03.970Z,5.33
2023-05-02T13:22:31.252Z,22.70
2023-05-02T13:24:58.443Z,10.60
2023-05-02T13:27:25.798Z,11.67
2023-05-02T13:29:53.057Z,6.43
2023-05-02T13:32:20.110Z,4.47
2023-05-02T13:34:47.232Z,4.00
2023-05-02T13:37:14.409Z,4.23
2023-05-02T13:39:41.367Z,3.67
2023-05-02T13:42:08.443Z,3.27
2023-05-02T13:44:36.524Z,3.10
2023-05-02T13:47:04.127Z,2.73
2023-05-02T13:49:31.202Z,2.93
2023-05-02T13:51:58.225Z,2.97
2023-05-02T13:54:25.205Z,2.97
2023-05-02T13:56:52.329Z,2.63
2023-05-02T13:59:19.229Z,3.17
2023-05-02T14:01:46.176Z,2.73
2023-05-02T14:04:13.363Z,3.17
2023-05-02T14:06:40.696Z,3.00
2023-05-02T14:09:07.804Z,2.90
2023-05-02T14:11:34.787Z,2.63
2023-05-02T14:14:01.837Z,4.03
2023-05-02T14:16:28.895Z,1.80
2023-05-02T14:18:55.911Z,1.70
2023-05-02T14:21:22.899Z,1.63
2023-05-02T14:23:49.788Z,4.40
2023-05-02T14:26:16.979Z,2.23
2023-05-02T14:28:44.000Z,2.10
2023-05-02T14:31:11.606Z,2.03
2023-05-02T14:33:38.627Z,1.63
2023-05-02T14:36:05.799Z,1.73
2023-05-02T14:38:32.733Z,2.27
2023-05-02T14:40:59.668Z,2.00
2023-05-02T14:43:27.655Z,2.10
2023-05-02T14:45:54.624Z,2.50
2023-05-02T14:48:21.602Z,1.83
2023-05-02T14:50:48.487Z,1.40
2023-05-02T14:53:15.592Z,1.97
2023-05-02T14:55:42.529Z,1.63
2023-05-02T14:58:10.485Z,1.67
2023-05-02T15:00:38.268Z,1.50
2023-05-02T15:03:07.917Z,2.00
2023-05-02T15:05:36.870Z,1.80
2023-05-02T15:08:04.070Z,2.00
2023-05-02T15:10:31.020Z,2.10
2023-05-02T15:12:57.936Z,3.00
2023-05-02T15:15:25.488Z,2.00
2023-05-02T15:17:53.133Z,1.83
2023-05-02T15:20:20.463Z,1.53
2023-05-02T15:22:47.413Z,1.80
2023-05-02T15:25:14.392Z,1.90
2023-05-02T15:27:41.699Z,2.93
2023-05-02T15:30:09.155Z,2.00
2023-05-02T15:32:36.080Z,2.60
2023-05-02T15:35:06.697Z,3.13
2023-05-02T15:37:33.677Z,2.30
2023-05-02T15:40:01.292Z,2.20
2023-05-02T15:42:28.398Z,2.13
2023-05-02T15:44:55.363Z,2.27
2023-05-02T15:47:22.510Z,1.80
2023-05-02T15:49:53.897Z,2.47
2023-05-02T15:52:21.652Z,2.70
2023-05-02T15:54:48.518Z,2.43
2023-05-02T15:57:15.441Z,2.70
2023-05-02T15:59:42.406Z,2.50
2023-05-02T16:02:09.357Z,2.10
2023-05-02T16:04:36.601Z,2.50
2023-05-02T16:07:03.748Z,1.90
2023-05-02T16:09:33.400Z,3.17
2023-05-02T16:12:01.598Z,1.60
2023-05-02T16:14:29.047Z,2.10
2023-05-02T16:16:56.524Z,1.80
2023-05-02T16:19:23.559Z,1.90
2023-05-02T16:21:50.957Z,2.20
2023-05-02T16:24:17.897Z,1.77
2023-05-02T16:26:45.759Z,2.10
2023-05-02T16:29:12.746Z,2.67
2023-05-02T16:31:39.965Z,2.70
2023-05-02T16:34:07.721Z,2.50
2023-05-02T16:36:34.630Z,2.27
2023-05-02T16:39:01.591Z,1.87
2023-05-02T16:41:28.808Z,2.33
2023-05-02T16:43:55.745Z,2.00
2023-05-02T16:46:22.729Z,2.20
2023-05-02T16:48:49.671Z,1.50
2023-05-02T16:51:16.803Z,1.90
2023-05-02T16:53:43.942Z,1.50
2023-05-02T16:56:10.863Z,2.03
2023-05-02T16:58:37.770Z,2.47
2023-05-02T17:01:05.414Z,1.80
2023-05-02T17:03:32.542Z,1.87
2023-05-02T17:06:01.325Z,1.80
2023-05-02T17:08:28.358Z,1.90
2023-05-02T17:10:56.283Z,1.73
2023-05-02T17:13:23.324Z,1.90
2023-05-02T17:18:37.416Z,1.50
2023-05-02T17:21:04.521Z,1.73
2023-05-02T17:26:17.355Z,2.20
2023-05-02T17:28:45.055Z,1.83
2023-05-02T17:31:12.300Z,2.03
2023-05-02T17:33:39.202Z,2.43
2023-05-02T17:36:06.982Z,2.10
2023-05-02T17:38:33.971Z,2.37
2023-05-02T17:41:01.161Z,1.90
2023-05-02T17:43:28.049Z,2.13
2023-05-02T17:45:55.035Z,2.27
2023-05-02T17:48:22.060Z,1.90
2023-05-02T17:50:50.962Z,2.17
2023-05-02T17:53:17.839Z,1.90
2023-05-02T17:55:44.888Z,1.67
2023-05-02T17:58:11.732Z,2.10
2023-05-02T18:00:38.666Z,2.07
2023-05-02T18:03:05.656Z,1.90
2023-05-02T18:05:38.667Z,2.00
2023-05-02T18:08:07.334Z,2.00
2023-05-02T18:10:41.714Z,2.37
2023-05-02T18:13:09.110Z,2.70
2023-05-02T18:15:36.112Z,2.67
2023-05-02T18:18:03.051Z,3.40
2023-05-02T18:20:30.191Z,3.20
2023-05-02T18:22:59.228Z,3.37
2023-05-02T18:25:26.192Z,4.00
2023-05-02T18:27:53.060Z,4.70
2023-05-02T18:30:20.515Z,4.73
2023-05-02T18:32:47.848Z,6.23
2023-05-02T18:35:14.794Z,5.43
2023-05-02T18:37:41.796Z,4.77
2023-05-02T18:40:09.194Z,4.97
2023-05-02T18:42:36.354Z,6.03
2023-05-02T18:45:05.206Z,5.57
2023-05-02T18:47:33.724Z,5.83
2023-05-02T18:50:01.158Z,5.00
2023-05-02T18:52:30.438Z,6.27
2023-05-02T18:54:57.439Z,7.47
2023-05-02T18:57:24.626Z,6.33
2023-05-02T18:59:52.095Z,5.83
2023-05-02T19:02:18.973Z,5.90
2023-05-02T19:04:46.182Z,7.47
2023-05-02T19:07:13.119Z,9.53
2023-05-02T19:09:40.570Z,12.33
2023-05-02T19:12:08.009Z,12.50
2023-05-02T19:14:36.132Z,11.90
2023-05-02T19:17:04.989Z,17.43
2023-05-02T19:19:32.619Z,22.87
2023-05-02T19:21:59.510Z,25.80
2023-05-02T19:24:26.498Z,24.67
2023-05-02T19:26:53.725Z,22.53
2023-05-02T19:29:21.027Z,20.83
2023-05-02T19:31:47.966Z,21.73
2023-05-02T19:34:14.992Z,21.13
2023-05-02T19:36:41.931Z,18.40
2023-05-02T19:39:10.821Z,18.50
2023-05-02T19:41:38.483Z,16.43
2023-05-02T19:44:05.792Z,10.83
2023-05-02T19:46:33.071Z,8.03
2023-05-02T19:49:00.152Z,6.97
2023-05-02T19:51:28.226Z,6.53
2023-05-02T19:53:58.457Z,8.33
2023-05-02T19:56:27.306Z,8.23
2023-05-02T19:58:54.946Z,7.33
2023-05-02T20:01:21.907Z,8.33
2023-05-02T20:03:49.036Z,7.00
2023-05-02T20:06:16.014Z,8.27
2023-05-02T20:08:42.968Z,8.50
2023-05-02T20:11:09.860Z,7.53
2023-05-02T20:13:36.884Z,8.13
2023-05-02T20:16:04.071Z,7.50
2023-05-02T20:18:31.358Z,7.80
2023-05-02T20:20:58.363Z,8.83
2023-05-02T20:23:25.391Z,9.40
2023-05-02T20:25:52.501Z,12.03
2023-05-02T20:28:19.327Z,14.57
2023-05-02T20:30:46.185Z,12.50
2023-05-02T20:33:16.697Z,11.67
2023-05-02T20:35:45.497Z,16.70
2023-05-02T20:38:12.535Z,21.70
2023-05-02T20:40:40.911Z,18.50
2023-05-02T20:43:08.809Z,19.30
2023-05-02T20:45:35.771Z,21.53
2023-05-02T20:48:02.692Z,21.73
2023-05-02T20:50:29.632Z,22.03
2023-05-02T20:52:56.731Z,18.97
2023-05-02T20:55:24.317Z,17.07
2023-05-02T20:57:53.297Z,16.37
2023-05-02T21:00:22.845Z,16.73
2023-05-02T21:02:50.004Z,17.17
2023-05-02T21:05:17.387Z,18.90
2023-05-02T21:07:45.074Z,19.33
2023-05-02T21:10:12.062Z,21.70
2023-05-02T21:12:39.578Z,24.73
2023-05-02T21:15:07.858Z,26.70
2023-05-02T21:17:34.895Z,30.93
2023-05-02T21:20:02.150Z,35.33
2023-05-02T21:22:29.431Z,36.83
2023-05-02T21:24:56.333Z,37.07
2023-05-02T21:27:23.363Z,32.00
2023-05-02T21:29:50.412Z,29.27
2023-05-02T21:32:17.392Z,24.17
2023-05-02T21:34:44.277Z,24.17
2023-05-02T21:37:11.256Z,23.33
2023-05-02T21:39:38.989Z,26.33
2023-05-02T21:42:06.222Z,23.20
2023-05-02T21:44:33.080Z,23.27
2023-05-02T21:47:00.248Z,19.93
2023-05-02T21:49:30.038Z,19.63
2023-05-02T21:51:58.385Z,20.23
2023-05-02T21:54:25.655Z,21.53
2023-05-02T21:56:54.124Z,21.60
2023-05-02T21:59:21.221Z,21.60
2023-05-02T22:01:48.151Z,21.90
2023-05-02T22:04:15.185Z,22.50
2023-05-02T22:06:42.931Z,21.80
2023-05-02T22:09:10.525Z,21.10
2023-05-02T22:11:37.426Z,20.70
2023-05-02T22:14:04.383Z,21.07
2023-05-02T22:16:31.412Z,21.47
2023-05-02T22:18:58.448Z,20.63
2023-05-02T22:21:25.380Z,22.13
2023-05-02T22:23:52.218Z,23.20
2023-05-02T22:26:19.346Z,24.03
2023-05-02T22:28:46.206Z,20.77
2023-05-02T22:31:14.181Z,21.10
2023-05-02T22:33:42.909Z,22.43
2023-05-02T22:36:09.822Z,21.70
2023-05-02T22:38:39.823Z,22.37
2023-05-02T22:41:06.924Z,20.80
2023-05-02T22:43:33.915Z,21.63
2023-05-02T22:46:00.927Z,22.60
2023-05-02T22:48:28.188Z,21.63
2023-05-02T22:50:55.320Z,23.13
2023-05-02T22:53:22.922Z,21.97
2023-05-02T22:55:51.901Z,23.83
2023-05-02T22:58:18.832Z,23.50
2023-05-02T23:00:46.312Z,23.57
2023-05-02T23:03:13.372Z,22.53
2023-05-02T23:05:40.460Z,23.13
2023-05-02T23:08:07.566Z,23.67
2023-05-02T23:10:34.526Z,22.80
2023-05-02T23:13:01.422Z,23.20
2023-05-02T23:15:28.319Z,24.73
2023-05-02T23:17:55.546Z,24.83
2023-05-02T23:20:23.352Z,25.40
2023-05-02T23:22:50.394Z,24.63
2023-05-02T23:25:17.509Z,24.27
2023-05-02T23:27:44.388Z,25.47
2023-05-02T23:30:11.704Z,23.63
2023-05-02T23:32:39.487Z,24.57
2023-05-02T23:35:07.018Z,23.43
2023-05-02T23:37:34.391Z,22.83
2023-05-02T23:40:01.683Z,22.67
2023-05-02T23:42:34.001Z,22.57
2023-05-02T23:45:00.914Z,22.67
2023-05-02T23:47:28.119Z,21.23
2023-05-02T23:49:55.085Z,21.17
2023-05-02T23:52:22.042Z,22.93
2023-05-02T23:54:49.095Z,23.33
2023-05-02T23:57:15.969Z,22.90
2023-05-02T23:59:42.852Z,22.47
